Terminal Aerodrome Forecast
Issued by NWS

Home | Current Version | Previous Version | Text Only | Print | Product List | Glossary On
Versions: 1 2 3 4 5 6 7 8 9 10 11 12 13 14 15 16 17 18 19
000
FTUS41 KCAR 020520
TAFHUL
TAF
KHUL 020520Z 0206/0306 VRB03KT P6SM SKC
     FM021300 28007KT P6SM FEW110
     FM022100 22006KT P6SM OVC005
     FM030000 17009KT 2SM -SNPL OVC004=

USA.gov is the U.S. government's official web portal to all federal, state and local government web resources and services.